Terminal Aerodrome Forecast
Issued by NWS

Current Version | Previous Version | Text Only | Print | Product List | Glossary On
Versions: 1 2 3 4 5 6 7 8 9 10 11 12 13 14 15 16 17 18 19 20 21 22
357
FTUS41 KBTV 120228 AAA
TAFMPV
TAF AMD
KMPV 120228Z 1202/1224 32010G18KT 2SM -SN BKN018 OVC035
      TEMPO 1202/1206 P6SM NSW SCT018 OVC035
     FM120600 31007KT P6SM OVC050
     FM121100 VRB03KT P6SM BKN140
     FM121500 20005KT P6SM SCT045
     FM121800 20007KT P6SM BKN040=

USA.gov is the U.S. government's official web portal to all federal, state and local government web resources and services.